createdAt,value
2023-01-26T00:01:55.942Z,3.20
2023-01-26T00:04:23.088Z,4.57
2023-01-26T00:06:50.734Z,3.60
2023-01-26T00:09:18.039Z,2.92
2023-01-26T00:11:45.181Z,3.50
2023-01-26T00:14:12.346Z,2.78
2023-01-26T00:16:39.569Z,3.92
2023-01-26T00:19:07.034Z,2.60
2023-01-26T00:21:34.268Z,2.50
2023-01-26T00:24:01.784Z,2.75
2023-01-26T00:26:29.026Z,4.65
2023-01-26T00:28:56.272Z,2.90
2023-01-26T00:31:26.075Z,2.45
2023-01-26T00:33:55.716Z,3.30
2023-01-26T00:36:23.403Z,3.20
2023-01-26T00:38:50.828Z,3.83
2023-01-26T00:41:56.371Z,4.10
2023-01-26T00:44:26.421Z,3.20
2023-01-26T00:46:53.677Z,3.03
2023-01-26T00:49:20.856Z,3.30
2023-01-26T00:51:48.011Z,4.28
2023-01-26T00:54:15.259Z,4.60
2023-01-26T00:56:42.362Z,3.40
2023-01-26T00:59:09.661Z,3.45
2023-01-26T01:01:37.173Z,4.25
2023-01-26T01:04:04.355Z,3.17
2023-01-26T01:06:33.319Z,3.60
2023-01-26T01:09:00.485Z,3.83
2023-01-26T01:11:28.285Z,3.80
2023-01-26T01:13:55.613Z,3.45
2023-01-26T01:16:22.895Z,3.08
2023-01-26T01:18:54.573Z,4.13
2023-01-26T01:21:25.417Z,5.20
2023-01-26T01:23:54.069Z,4.32
2023-01-26T01:26:21.336Z,3.20
2023-01-26T01:28:48.742Z,4.75
2023-01-26T01:31:17.035Z,4.28
2023-01-26T01:33:44.536Z,4.25
2023-01-26T01:36:14.730Z,3.65
2023-01-26T01:38:43.177Z,4.47
2023-01-26T01:41:11.412Z,4.90
2023-01-26T01:43:38.972Z,4.35
2023-01-26T01:46:21.671Z,4.97
2023-01-26T01:48:54.843Z,4.05
2023-01-26T01:51:35.235Z,4.47
2023-01-26T01:54:15.503Z,4.40
2023-01-26T01:56:57.340Z,4.63
2023-01-26T01:59:25.534Z,4.78
2023-01-26T02:01:55.953Z,4.50
2023-01-26T02:04:24.707Z,4.68
2023-01-26T02:06:55.070Z,4.72
2023-01-26T02:09:54.575Z,4.95
2023-01-26T02:12:27.576Z,4.30
2023-01-26T02:14:55.297Z,5.63
2023-01-26T02:17:22.809Z,5.20
2023-01-26T02:20:23.849Z,5.55
2023-01-26T02:23:12.512Z,5.50
2023-01-26T02:25:52.999Z,4.93
2023-01-26T02:28:24.686Z,4.50
2023-01-26T02:30:53.289Z,4.68
2023-01-26T02:33:23.531Z,5.57
2023-01-26T02:35:52.068Z,5.30
2023-01-26T02:38:23.039Z,4.53
2023-01-26T02:40:54.956Z,5.55
2023-01-26T02:43:26.394Z,5.07
2023-01-26T02:45:53.879Z,5.20
2023-01-26T02:48:40.557Z,5.78
2023-01-26T02:51:08.216Z,4.88
2023-01-26T02:53:35.440Z,4.85
2023-01-26T02:56:02.614Z,4.88
2023-01-26T02:58:29.810Z,4.78
2023-01-26T03:00:56.961Z,5.20
2023-01-26T03:03:41.508Z,5.18
2023-01-26T03:06:10.660Z,4.63
2023-01-26T03:08:38.678Z,5.15
2023-01-26T03:11:07.850Z,4.78
2023-01-26T03:13:35.662Z,4.78
2023-01-26T03:16:07.170Z,4.70
2023-01-26T03:19:04.983Z,4.65
2023-01-26T03:21:50.860Z,4.50
2023-01-26T03:24:37.372Z,5.50
2023-01-26T03:27:27.898Z,5.20
2023-01-26T03:29:58.851Z,4.90
2023-01-26T03:32:26.296Z,4.88
2023-01-26T03:34:54.390Z,4.68
2023-01-26T03:37:22.783Z,4.97
2023-01-26T03:40:19.247Z,4.63
2023-01-26T03:43:04.577Z,4.68
2023-01-26T03:45:50.015Z,5.95
2023-01-26T03:48:36.685Z,4.47
2023-01-26T03:51:24.471Z,5.03
2023-01-26T03:54:13.994Z,6.22
2023-01-26T03:56:41.226Z,5.38
2023-01-26T03:59:15.479Z,5.03
2023-01-26T04:02:06.224Z,5.93
2023-01-26T04:04:53.714Z,5.23
2023-01-26T04:07:43.716Z,4.97
2023-01-26T04:10:11.542Z,5.05
2023-01-26T04:12:38.972Z,4.68
2023-01-26T04:15:35.982Z,5.20
2023-01-26T04:18:26.504Z,4.65
2023-01-26T04:21:13.166Z,4.27
2023-01-26T04:23:42.927Z,5.15
2023-01-26T04:26:10.197Z,5.53
2023-01-26T04:28:38.366Z,4.57
2023-01-26T04:31:06.467Z,4.40
2023-01-26T04:33:37.465Z,5.47
2023-01-26T04:36:06.814Z,4.25
2023-01-26T04:38:37.048Z,4.07
2023-01-26T04:41:04.508Z,5.07
2023-01-26T04:43:37.532Z,4.30
2023-01-26T04:46:07.704Z,3.47
2023-01-26T04:48:36.519Z,3.95
2023-01-26T04:51:07.175Z,3.92
2023-01-26T04:53:34.775Z,4.05
2023-01-26T04:56:02.303Z,3.45
2023-01-26T04:58:30.588Z,4.57
2023-01-26T05:00:58.460Z,3.63
2023-01-26T05:03:26.713Z,3.38
2023-01-26T05:05:55.265Z,3.80
2023-01-26T05:08:24.911Z,3.10
2023-01-26T05:10:52.482Z,3.63
2023-01-26T05:13:39.936Z,3.28
2023-01-26T05:16:22.787Z,3.42
2023-01-26T05:19:02.958Z,3.92
2023-01-26T05:21:44.865Z,3.58
2023-01-26T05:24:13.235Z,3.67
2023-01-26T05:27:12.247Z,4.32
2023-01-26T05:29:42.301Z,4.22
2023-01-26T05:32:10.071Z,5.88
2023-01-26T05:34:37.890Z,3.78
2023-01-26T05:37:06.328Z,4.28
2023-01-26T05:39:35.054Z,4.20
2023-01-26T05:42:05.275Z,4.13
2023-01-26T05:44:53.125Z,4.38
2023-01-26T05:47:22.474Z,4.15
2023-01-26T05:49:50.980Z,4.85
2023-01-26T05:52:23.619Z,4.30
2023-01-26T05:54:51.388Z,5.10
2023-01-26T05:57:18.947Z,5.03
2023-01-26T05:59:53.807Z,5.43
2023-01-26T06:02:21.699Z,3.92
2023-01-26T06:04:49.800Z,4.65
2023-01-26T06:07:16.962Z,4.35
2023-01-26T06:10:07.388Z,5.75
2023-01-26T06:13:06.855Z,5.45
2023-01-26T06:15:41.000Z,4.40
2023-01-26T06:18:08.704Z,4.40
2023-01-26T06:20:36.845Z,4.65
2023-01-26T06:23:07.143Z,5.25
2023-01-26T06:25:35.636Z,4.35
2023-01-26T06:28:03.987Z,4.13
2023-01-26T06:30:32.030Z,4.63
2023-01-26T06:33:02.866Z,5.03
2023-01-26T06:35:33.960Z,4.25
2023-01-26T06:38:03.053Z,4.13
2023-01-26T06:40:30.221Z,4.85
2023-01-26T06:43:02.496Z,4.60
2023-01-26T06:45:30.099Z,5.07
2023-01-26T06:47:57.631Z,5.18
2023-01-26T06:50:32.526Z,4.55
2023-01-26T06:53:02.975Z,4.82
2023-01-26T06:55:47.289Z,4.45
2023-01-26T06:58:49.913Z,3.83
2023-01-26T07:01:48.792Z,4.25
2023-01-26T07:04:16.941Z,5.50
2023-01-26T07:06:44.649Z,4.03
2023-01-26T07:09:12.108Z,4.53
2023-01-26T07:11:39.324Z,6.05
2023-01-26T07:14:06.839Z,4.28
2023-01-26T07:16:34.204Z,3.85
2023-01-26T07:19:01.613Z,5.05
2023-01-26T07:21:34.432Z,5.32
2023-01-26T07:24:01.610Z,4.38
2023-01-26T07:26:28.824Z,4.05
2023-01-26T07:28:56.469Z,4.72
2023-01-26T07:31:23.948Z,3.90
2023-01-26T07:33:51.191Z,5.00
2023-01-26T07:36:22.261Z,4.47
2023-01-26T07:38:52.378Z,5.30
2023-01-26T07:41:21.957Z,3.58
2023-01-26T07:43:51.201Z,4.30
2023-01-26T07:46:19.461Z,3.85
2023-01-26T07:48:46.670Z,5.15
2023-01-26T07:51:16.649Z,3.95
2023-01-26T07:53:44.160Z,4.32
2023-01-26T07:56:13.576Z,5.75
2023-01-26T07:58:43.579Z,5.20
2023-01-26T08:01:15.681Z,5.10
2023-01-26T08:03:45.604Z,5.32
2023-01-26T08:06:14.477Z,6.53
2023-01-26T08:08:46.135Z,5.32
2023-01-26T08:11:15.915Z,4.70
2023-01-26T08:13:43.151Z,5.25
2023-01-26T08:16:12.705Z,5.80
2023-01-26T08:18:44.623Z,4.53
2023-01-26T08:21:16.922Z,6.95
2023-01-26T08:26:13.831Z,4.60
2023-01-26T08:28:44.171Z,4.82
2023-01-26T08:31:15.272Z,3.50
2023-01-26T08:33:43.643Z,4.10
2023-01-26T08:36:16.273Z,4.05
2023-01-26T08:38:43.557Z,3.97
2023-01-26T08:41:13.238Z,4.15
2023-01-26T08:43:40.681Z,4.60
2023-01-26T08:46:11.047Z,3.45
2023-01-26T08:48:38.816Z,3.92
2023-01-26T08:51:08.017Z,4.25
2023-01-26T08:53:38.423Z,4.30
2023-01-26T08:56:08.133Z,4.40
2023-01-26T08:58:36.687Z,4.57
2023-01-26T09:01:08.526Z,4.97
2023-01-26T09:03:38.109Z,5.13
2023-01-26T09:06:07.095Z,5.15
2023-01-26T09:08:34.500Z,4.15
2023-01-26T09:11:01.776Z,4.70
2023-01-26T09:13:28.891Z,5.28
2023-01-26T09:15:56.082Z,4.95
2023-01-26T09:18:23.286Z,4.63
2023-01-26T09:20:51.336Z,5.28
2023-01-26T09:23:18.503Z,5.15
2023-01-26T09:25:45.791Z,5.40
2023-01-26T09:28:12.984Z,5.45
2023-01-26T09:30:43.053Z,6.65
2023-01-26T09:33:10.292Z,7.43
2023-01-26T09:35:37.444Z,8.43
2023-01-26T09:38:04.828Z,8.15
2023-01-26T09:40:46.103Z,7.13
2023-01-26T09:43:20.279Z,8.32
2023-01-26T09:46:07.393Z,7.78
2023-01-26T09:48:40.662Z,9.25
2023-01-26T09:51:23.458Z,9.35
2023-01-26T09:53:59.430Z,9.02
2023-01-26T09:56:30.267Z,9.70
2023-01-26T09:59:18.658Z,9.90
2023-01-26T10:01:53.963Z,9.27
2023-01-26T10:04:33.189Z,10.57
2023-01-26T10:07:04.578Z,10.60
2023-01-26T10:09:52.271Z,9.85
2023-01-26T10:12:37.127Z,9.10
2023-01-26T10:15:18.877Z,8.48
2023-01-26T10:17:47.944Z,11.00
2023-01-26T10:20:15.256Z,9.50
2023-01-26T10:22:51.916Z,10.30
2023-01-26T10:25:25.332Z,9.27
2023-01-26T10:27:53.096Z,9.05
2023-01-26T10:30:21.635Z,8.77
2023-01-26T10:32:52.764Z,8.88
2023-01-26T10:35:23.085Z,8.88
2023-01-26T10:37:53.147Z,9.75
2023-01-26T10:40:22.199Z,9.80
2023-01-26T10:42:58.180Z,9.90
2023-01-26T10:45:31.480Z,12.60
2023-01-26T10:48:13.862Z,10.88
2023-01-26T10:53:19.293Z,11.60
2023-01-26T10:56:01.814Z,11.23
2023-01-26T10:58:52.217Z,12.73
2023-01-26T11:01:22.883Z,11.52
2023-01-26T11:04:12.237Z,12.63
2023-01-26T11:06:39.632Z,11.85
2023-01-26T11:09:15.692Z,12.18
2023-01-26T11:11:59.324Z,13.10
2023-01-26T11:14:27.358Z,11.05
2023-01-26T11:17:08.118Z,10.20
2023-01-26T11:20:12.679Z,10.80
2023-01-26T11:22:45.861Z,10.82
2023-01-26T11:25:39.242Z,11.25
2023-01-26T11:28:27.558Z,10.10
2023-01-26T11:31:12.080Z,10.10
2023-01-26T11:34:04.406Z,8.63
2023-01-26T11:36:39.315Z,8.35
2023-01-26T11:39:15.552Z,7.28
2023-01-26T11:42:21.177Z,8.38
2023-01-26T11:45:14.656Z,8.23
2023-01-26T11:48:13.584Z,7.93
2023-01-26T11:51:05.684Z,6.75
2023-01-26T11:53:51.375Z,6.95
2023-01-26T11:56:35.987Z,6.03
2023-01-26T11:59:12.425Z,6.15
2023-01-26T12:01:44.029Z,6.07
2023-01-26T12:04:22.465Z,7.25
2023-01-26T12:06:58.177Z,6.82
2023-01-26T12:09:33.408Z,7.03
2023-01-26T12:12:05.200Z,7.18
2023-01-26T12:14:50.206Z,7.05
2023-01-26T12:17:36.550Z,7.65
2023-01-26T12:20:24.749Z,8.27
2023-01-26T12:23:05.898Z,8.57
2023-01-26T12:25:35.556Z,7.72
2023-01-26T12:28:29.014Z,7.75
2023-01-26T12:31:13.631Z,9.02
2023-01-26T12:33:41.428Z,6.70
2023-01-26T12:36:17.856Z,6.60
2023-01-26T12:39:08.160Z,4.72
2023-01-26T12:42:06.462Z,5.18
2023-01-26T12:44:53.355Z,4.68
2023-01-26T12:47:34.655Z,4.07
2023-01-26T12:50:36.881Z,5.55
2023-01-26T12:53:23.243Z,3.53
2023-01-26T12:56:02.336Z,3.35
2023-01-26T12:58:38.040Z,4.47
2023-01-26T13:01:14.994Z,4.22
2023-01-26T13:03:55.814Z,4.95
2023-01-26T13:06:28.145Z,4.05
2023-01-26T13:11:48.324Z,4.20
2023-01-26T13:14:30.554Z,3.90
2023-01-26T13:17:19.123Z,3.08
2023-01-26T13:19:46.300Z,4.13
2023-01-26T13:22:19.556Z,3.25
2023-01-26T13:24:48.864Z,4.30
2023-01-26T13:27:34.674Z,4.18
2023-01-26T13:30:02.423Z,4.05
2023-01-26T13:32:59.889Z,3.53
2023-01-26T13:35:27.667Z,3.50
2023-01-26T13:38:03.879Z,3.20
2023-01-26T13:40:35.490Z,3.40
2023-01-26T13:43:02.648Z,2.92
2023-01-26T13:45:39.236Z,3.55
2023-01-26T13:48:16.483Z,3.63
2023-01-26T13:50:45.414Z,3.08
2023-01-26T13:53:50.176Z,3.13
2023-01-26T13:56:35.530Z,3.58
2023-01-26T13:59:11.370Z,2.65
2023-01-26T14:01:51.087Z,3.08
2023-01-26T14:04:24.127Z,2.38
2023-01-26T14:07:07.711Z,2.45
2023-01-26T14:09:45.089Z,2.40
2023-01-26T14:12:23.871Z,2.95
2023-01-26T14:15:03.260Z,2.72
2023-01-26T14:17:33.513Z,4.07
2023-01-26T14:20:03.703Z,3.47
2023-01-26T14:22:31.008Z,2.75
2023-01-26T14:24:58.222Z,3.75
2023-01-26T14:27:25.419Z,4.18
2023-01-26T14:29:52.671Z,4.00
2023-01-26T14:32:25.344Z,3.03
2023-01-26T14:34:58.593Z,3.40
2023-01-26T14:37:27.681Z,3.55
2023-01-26T14:40:17.641Z,4.82
2023-01-26T14:42:45.314Z,3.78
2023-01-26T14:45:13.980Z,3.90
2023-01-26T14:47:45.498Z,3.80
2023-01-26T14:50:18.843Z,3.25
2023-01-26T14:52:46.714Z,5.38
2023-01-26T14:55:25.551Z,3.60
2023-01-26T14:57:54.184Z,2.10
2023-01-26T15:00:30.990Z,2.30
2023-01-26T15:03:00.440Z,1.85
2023-01-26T15:05:38.647Z,3.05
2023-01-26T15:08:19.720Z,2.17
2023-01-26T15:11:21.979Z,3.53
2023-01-26T15:13:53.725Z,3.47
2023-01-26T15:16:25.517Z,2.40
2023-01-26T15:19:07.031Z,2.33
2023-01-26T15:21:44.403Z,2.83
2023-01-26T15:24:15.669Z,3.50
2023-01-26T15:26:43.642Z,3.17
2023-01-26T15:29:22.341Z,3.78
2023-01-26T15:31:56.990Z,2.72
2023-01-26T15:34:42.527Z,3.55
2023-01-26T15:37:33.627Z,3.60
2023-01-26T15:40:01.033Z,3.63
2023-01-26T15:42:33.266Z,5.53
2023-01-26T15:45:00.557Z,3.67
2023-01-26T15:47:28.103Z,3.88
2023-01-26T15:49:57.260Z,4.00
2023-01-26T15:52:33.026Z,2.53
2023-01-26T15:55:00.577Z,2.72
2023-01-26T15:57:31.652Z,2.55
2023-01-26T15:59:59.187Z,2.58
2023-01-26T16:02:32.923Z,2.50
2023-01-26T16:05:03.530Z,2.95
2023-01-26T16:07:30.883Z,2.60
2023-01-26T16:10:00.965Z,3.30
2023-01-26T16:12:32.500Z,3.58
2023-01-26T16:15:00.233Z,3.80
2023-01-26T16:17:27.740Z,4.00
2023-01-26T16:19:54.924Z,4.13
2023-01-26T16:22:22.171Z,2.67
2023-01-26T16:24:49.345Z,3.22
2023-01-26T16:27:16.517Z,2.95
2023-01-26T16:29:43.654Z,3.03
2023-01-26T16:32:28.839Z,4.15
2023-01-26T16:34:56.174Z,2.95
2023-01-26T16:37:23.340Z,3.60
2023-01-26T16:39:50.443Z,2.40
2023-01-26T16:42:20.335Z,3.20
2023-01-26T16:44:48.001Z,2.45
2023-01-26T16:47:15.165Z,2.67
2023-01-26T16:49:42.364Z,2.63
2023-01-26T16:52:10.154Z,2.53
2023-01-26T16:54:37.489Z,2.20
2023-01-26T16:57:04.707Z,2.95
2023-01-26T16:59:32.196Z,2.53
2023-01-26T17:02:00.137Z,4.00
2023-01-26T17:04:27.482Z,2.95
2023-01-26T17:06:54.624Z,4.22
2023-01-26T17:09:23.860Z,3.47
2023-01-26T17:11:51.388Z,3.97
2023-01-26T17:14:19.244Z,4.25
2023-01-26T17:16:46.595Z,3.03
2023-01-26T17:19:15.886Z,3.22
2023-01-26T17:21:42.996Z,4.25
2023-01-26T17:24:10.259Z,2.97
2023-01-26T17:26:37.456Z,3.50
2023-01-26T17:29:04.590Z,4.13
2023-01-26T17:31:32.652Z,3.78
2023-01-26T17:34:00.627Z,3.53
2023-01-26T17:36:28.694Z,3.60
2023-01-26T17:38:58.992Z,5.00
2023-01-26T17:41:29.493Z,3.05
2023-01-26T17:43:56.798Z,3.10
2023-01-26T17:46:24.556Z,4.25
2023-01-26T17:48:54.502Z,4.90
2023-01-26T17:51:23.295Z,3.88
2023-01-26T17:53:54.702Z,3.95
2023-01-26T17:56:33.492Z,4.28
2023-01-26T17:59:04.413Z,3.72
2023-01-26T18:01:31.810Z,3.95
2023-01-26T18:03:59.390Z,3.45
2023-01-26T18:06:26.843Z,4.70
2023-01-26T18:08:54.514Z,3.95
2023-01-26T18:11:22.412Z,4.32
2023-01-26T18:13:50.617Z,4.80
2023-01-26T18:16:19.974Z,3.60
2023-01-26T18:18:48.205Z,4.00
2023-01-26T18:21:22.736Z,3.00
2023-01-26T18:23:52.154Z,3.40
2023-01-26T18:26:21.718Z,2.60
2023-01-26T18:28:49.989Z,2.65
2023-01-26T18:31:25.677Z,2.53
2023-01-26T18:33:53.475Z,4.05
2023-01-26T18:36:21.209Z,3.38
2023-01-26T18:38:51.295Z,3.15
2023-01-26T18:41:31.888Z,3.28
2023-01-26T18:44:00.200Z,3.10
2023-01-26T18:46:28.768Z,2.42
2023-01-26T18:49:03.693Z,2.85
2023-01-26T18:51:33.871Z,3.40
2023-01-26T18:54:01.725Z,2.85
2023-01-26T18:56:28.919Z,2.65
2023-01-26T18:58:56.025Z,2.63
2023-01-26T19:01:23.718Z,3.58
2023-01-26T19:03:55.494Z,2.92
2023-01-26T19:06:24.593Z,3.33
2023-01-26T19:09:01.375Z,2.85
2023-01-26T19:11:34.591Z,3.15
2023-01-26T19:14:02.989Z,2.38
2023-01-26T19:16:31.069Z,2.08
2023-01-26T19:18:58.728Z,2.55
2023-01-26T19:21:28.417Z,2.03
2023-01-26T19:23:58.625Z,1.70
2023-01-26T19:26:29.707Z,2.45
2023-01-26T19:28:57.328Z,2.30
2023-01-26T19:31:26.508Z,2.17
2023-01-26T19:34:04.908Z,2.50
2023-01-26T19:36:34.026Z,1.75
2023-01-26T19:39:02.304Z,1.98
2023-01-26T19:41:29.633Z,1.75
2023-01-26T19:43:56.781Z,2.40
2023-01-26T19:46:24.156Z,1.50
2023-01-26T19:48:51.425Z,2.05
2023-01-26T19:51:24.618Z,2.05
2023-01-26T19:53:55.490Z,2.08
2023-01-26T19:56:28.810Z,1.63
2023-01-26T19:58:58.694Z,1.42
2023-01-26T20:01:26.893Z,2.55
2023-01-26T20:04:00.328Z,1.42
2023-01-26T20:06:30.035Z,1.30
2023-01-26T20:08:58.109Z,1.40
2023-01-26T20:11:27.251Z,1.33
2023-01-26T20:13:59.199Z,1.95
2023-01-26T20:16:29.592Z,1.98
2023-01-26T20:18:57.654Z,1.42
2023-01-26T20:21:25.597Z,2.33
2023-01-26T20:23:55.415Z,1.50
2023-01-26T20:26:24.866Z,1.50
2023-01-26T20:28:52.649Z,1.55
2023-01-26T20:31:22.616Z,1.60
2023-01-26T20:33:51.552Z,1.17
2023-01-26T20:36:22.887Z,2.30
2023-01-26T20:38:50.368Z,1.92
2023-01-26T20:41:22.083Z,1.15
2023-01-26T20:43:59.301Z,1.27
2023-01-26T20:46:33.184Z,1.63
2023-01-26T20:49:01.859Z,1.30
2023-01-26T20:51:33.594Z,1.48
2023-01-26T20:54:01.213Z,1.25
2023-01-26T20:56:28.495Z,2.25
2023-01-26T20:58:56.256Z,1.90
2023-01-26T21:01:24.142Z,1.88
2023-01-26T21:03:52.079Z,1.35
2023-01-26T21:06:21.059Z,1.73
2023-01-26T21:08:49.774Z,1.33
2023-01-26T21:11:17.493Z,1.50
2023-01-26T21:13:45.453Z,1.50
2023-01-26T21:16:18.050Z,1.90
2023-01-26T21:18:46.231Z,1.60
2023-01-26T21:21:17.763Z,1.40
2023-01-26T21:23:46.013Z,2.13
2023-01-26T21:26:21.902Z,1.98
2023-01-26T21:28:54.864Z,2.13
2023-01-26T21:31:26.295Z,2.10
2023-01-26T21:33:54.791Z,2.05
2023-01-26T21:36:27.080Z,1.88
2023-01-26T21:38:56.069Z,3.53
2023-01-26T21:41:47.302Z,2.50
2023-01-26T21:44:17.094Z,2.67
2023-01-26T21:46:49.268Z,3.25
2023-01-26T21:52:02.722Z,2.35
2023-01-26T21:54:30.358Z,2.53
2023-01-26T21:56:58.607Z,2.35
2023-01-26T21:59:25.987Z,2.60
2023-01-26T22:01:55.493Z,2.05
2023-01-26T22:04:28.521Z,2.63
2023-01-26T22:06:56.717Z,1.80
2023-01-26T22:09:24.571Z,2.10
2023-01-26T22:11:52.564Z,2.45
2023-01-26T22:14:23.038Z,2.95
2023-01-26T22:16:50.436Z,3.00
2023-01-26T22:19:18.186Z,2.20
2023-01-26T22:21:45.352Z,3.22
2023-01-26T22:24:16.045Z,2.03
2023-01-26T22:26:43.544Z,2.17
2023-01-26T22:29:15.172Z,2.45
2023-01-26T22:31:42.344Z,1.95
2023-01-26T22:34:11.422Z,2.25
2023-01-26T22:36:39.423Z,2.17
2023-01-26T22:39:06.668Z,2.30
2023-01-26T22:41:34.782Z,2.92
2023-01-26T22:44:01.947Z,2.90
2023-01-26T22:46:30.825Z,3.05
2023-01-26T22:48:59.073Z,3.03
2023-01-26T22:51:30.961Z,3.53
2023-01-26T22:53:59.280Z,3.88
2023-01-26T22:56:27.029Z,3.95
2023-01-26T22:58:58.899Z,4.28
2023-01-26T23:03:59.762Z,3.92
2023-01-26T23:06:27.135Z,4.32
2023-01-26T23:08:54.898Z,4.03
2023-01-26T23:11:24.800Z,3.75
2023-01-26T23:13:53.466Z,4.47
2023-01-26T23:16:24.149Z,4.60
2023-01-26T23:18:57.191Z,6.22
2023-01-26T23:21:25.724Z,5.30
2023-01-26T23:23:52.907Z,5.90
2023-01-26T23:26:20.913Z,5.88
2023-01-26T23:28:48.471Z,6.70
2023-01-26T23:31:17.251Z,5.07
2023-01-26T23:33:45.010Z,5.93
2023-01-26T23:36:13.763Z,5.78
2023-01-26T23:38:41.226Z,5.53
2023-01-26T23:41:12.037Z,5.40
2023-01-26T23:43:39.515Z,6.55
2023-01-26T23:46:08.474Z,6.15
2023-01-26T23:48:35.946Z,6.25
2023-01-26T23:51:05.940Z,5.60
2023-01-26T23:53:33.648Z,6.80
2023-01-26T23:56:05.619Z,6.40
2023-01-26T23:58:32.810Z,5.78
